Peter Lambert

Colorado Rockies
Pos: SP | Hand: R
Status: Active
player props
FPTS -7 -5 -3 -1 1 3 5 8 10 12 SAL $5.5K $5.7K $5.8K $6K $6.2K $6.4K $6.6K $6.7K $6.9K $7.1K
  • FPTS: 9.9
  • FPTS: 11.55
  • FPTS: 4.55
  • FPTS: -0.05
  • FPTS: 6
  • FPTS: 0
  • FPTS: 0
  • FPTS: 0.7
  • FPTS: 0
  • FPTS: -8.65
  • FPTS: 3.65
  • FPTS: 0.1
  • FPTS: -0.9
  • FPTS: 3.9
  • FPTS: 0
  • FPTS: 9.6
  • SAL: $5.6K
  • SAL: $5.4K
  • SAL: $6.5K
  • SAL: $6.5K
  • SAL: $5.7K
  • SAL: $5.5K
  • SAL: $6K
  • SAL: $5.8K
  • SAL: $5.9K
  • SAL: $5.3K
  • SAL: $6K
  • SAL: $6.6K
  • SAL: $7.1K
  • SAL: $5.8K
  • SAL: $5.6K
  • SAL: $6.2K
04/12 04/17 04/22 04/25 04/27 04/28 05/02 05/03 05/09 05/15 05/18 05/23 05/29 05/30 06/02
Date Opp DKSAL FDSAL DKFPTS FDFPTS k ip ab sho w hra l er cg ha 3ba bba sba ibba whip hbp qstart 1ba k/9 2ba
2024-06-02 @ LAD $6.2K $6.2K 9.6 17 3 2 14 0 0 0 0 0 0 1 0 3 0 1 1.5 0 0 1 10.12 0
2024-05-29 vs. CLE $5.6K $6.2K 0 0 0 0 0 0 0 0 0 0 0 0 0 0 0 0 0 0 0 0 0 0
2024-05-28 vs. CLE $5.8K $6.2K 3.9 6 1 2 6 0 0 0 1 1 0 0 0 1 0 0 0.5 0 0 0 4.5 0
2024-05-23 @ OAK $7.1K $6.2K -0.9 2 1 0 6 0 0 0 1 1 0 2 0 2 0 1 6 0 0 2 13.5 0
2024-05-18 @ SF $6.6K $6.2K 0.1 3 0 2 9 0 0 0 0 1 0 2 0 2 0 0 2 0 0 1 0 1
2024-05-15 @ SD $6K $6.2K 3.65 6 1 1 5 0 0 0 0 0 0 0 0 1 0 0 1 0 0 0 9 0
2024-05-08 vs. SF $5.3K $6.2K -8.65 -6 2 3 20 0 0 1 1 7 0 9 1 0 0 0 3 0 0 5 6 2
2024-05-03 @ PIT $5.9K $6.9K 0 0 0 0 0 0 0 0 0 0 0 0 0 0 0 0 0 0 0 0 0 0
2024-05-02 @ MIA $5.8K $6.9K 0.7 7 3 3 20 0 0 1 0 4 0 5 0 3 1 0 2.4 0 0 3 8.1 1
2024-04-28 vs. HOU $6K $6.4K 0 0 0 0 0 0 0 0 0 0 0 0 0 0 0 0 0 0 0 0 0 0
2024-04-27 vs. HOU $5.5K $6.4K 0 0 0 0 0 0 0 0 0 0 0 0 0 0 0 0 0 0 0 0 0 0
2024-04-25 vs. SD $5.7K $6.4K 6 8 0 2 8 0 0 0 0 0 0 0 0 0 1 0 0 0 0 0 0 0
2024-04-21 vs. SEA $6.5K -- -0.05 6 5 3 18 0 0 0 1 6 0 6 1 0 1 0 2 2 0 4 15 1
2024-04-17 @ PHI $6.5K $6.4K 4.55 8 2 1 7 0 0 1 0 1 0 2 0 0 0 0 1.2 0 0 1 10.8 0
2024-04-12 @ TOR $5.4K $6.4K 11.55 18 3 3 10 0 0 0 0 0 0 1 0 1 0 0 0.67 0 0 1 9 0
2024-04-08 vs. ARI $5.6K $6.4K 9.9 15 1 2 6 0 1 0 0 0 0 0 0 1 0 0 0.5 0 0 0 4.5 0
2024-04-05 vs. TB $6.2K $6.4K 6.7 12 2 2 9 0 0 0 0 0 0 2 0 1 0 0 1.5 0 0 2 9 0
2024-04-01 @ CHC $6.2K $6.4K 0.9 6 2 2 11 0 0 0 0 2 0 5 0 1 0 0 3 0 0 5 9 0
2024-03-30 @ ARI $5.9K $6.4K 4.45 9 0 1 5 0 1 0 0 0 0 1 0 2 0 0 3 0 0 1 0 0
2024-03-20 @ ARI $4.5K -- 9.55 19 5 4 21 0 0 1 1 3 0 6 1 1 0 0 1.62 0 0 4 10.38 0
2024-03-14 @ CLE $4.5K -- 2.1 10 5 3 20 0 0 1 1 5 0 7 0 1 0 0 2.4 1 0 3 13.5 3
2024-03-09 @ CHC $4.5K -- 10.15 15 2 3 10 0 0 0 0 0 0 1 0 0 0 0 0.33 0 0 1 6 0
2024-03-04 vs. SF $4.5K -- 8.7 15 1 2 8 0 1 0 0 0 0 2 0 0 0 0 1 1 0 2 4.5 0
2024-02-29 @ CHC $4.5K -- 2.7 6 2 2 10 0 0 0 0 2 0 2 0 1 0 0 1.5 0 0 2 9 0
2024-02-24 @ OAK -- -- 3.3 6 0 2 7 0 0 0 0 0 0 0 0 2 0 0 1 0 0 0 0 0
2023-09-23 @ CHC $5.5K $6K 0 0 0 0 0 0 0 0 0 0 0 0 0 0 0 0 0 0 0 0 0 0
2023-09-10 @ SF $10.8K $6.7K -2.75 3 2 5 24 0 0 3 1 6 0 8 1 2 0 0 2 0 0 3 3.6 1
2023-09-04 @ ARI $5.5K $6.7K 11.3 21 5 6 25 0 0 0 1 4 0 6 1 1 0 0 1.17 0 0 3 7.5 2
2023-09-01 vs. TOR $5.4K $6.3K 0 0 0 0 0 0 0 0 0 0 0 0 0 0 0 0 0 0 0 0 0 0
2023-08-29 vs. ATL $5.4K $6.3K 3.25 12 2 5 28 0 0 1 1 3 0 9 1 0 0 0 1.8 1 0 6 3.6 1
2023-08-24 @ TB $5.2K $6K 15.65 27 6 5 20 0 0 1 0 2 0 4 1 1 0 0 1 1 0 2 10.8 0
2023-08-18 vs. CHW $5.3K $6K 24.75 43 5 7 24 0 1 1 0 1 0 4 0 1 0 0 0.71 0 1 3 6.43 0
2023-08-12 @ LAD $5K $5.8K 10.7 25 4 6 26 0 0 2 1 3 0 7 0 1 0 0 1.33 0 1 4 6 1
2023-08-07 @ MIL $5K $6.5K 1.45 8 4 3 20 0 0 1 1 5 0 4 1 3 0 0 1.91 1 0 2 9.82 0
2023-08-01 vs. SD $5.1K $6.5K 2.15 7 2 4 19 0 0 0 1 4 0 4 0 2 0 0 1.39 0 0 3 4.15 1
2023-07-26 @ WSH $5K $5.9K 14.5 28 2 6 22 0 0 0 0 0 0 3 0 1 0 0 0.67 1 1 3 3 0
2023-07-21 @ MIA $5K $5.5K 18.85 30 3 5 19 0 1 0 0 0 0 3 0 1 0 0 0.8 0 0 2 5.4 1
2023-07-15 vs. NYY $5K $5.5K 0 0 0 0 0 0 0 0 0 0 0 0 0 0 0 0 0 0 0 0 0 0
2023-07-01 vs. DET $5K $5.5K 8.95 15 2 3 13 0 0 0 0 0 0 2 1 1 0 0 1 0 0 1 6 0
2023-06-29 vs. LAD $4K $5.5K -11.35 -12 0 1 9 0 0 1 0 5 0 5 0 1 0 0 6 0 0 2 0 2
2023-06-23 vs. LAA $4K $5.5K 3.05 6 1 1 4 0 0 0 0 0 0 1 0 1 0 0 2 0 0 1 9 0
2023-06-20 @ CIN $4K $5.5K 7.75 15 4 3 16 0 0 1 0 2 0 5 0 0 0 0 1.67 0 0 2 12 2
2023-06-16 @ ATL $4K $5.5K 3.9 6 0 2 7 0 0 0 0 0 0 0 0 1 0 0 0.5 0 0 0 0 0
2023-06-14 @ BOS $4K $5.5K 3.35 8 2 1 9 0 0 0 0 1 0 3 0 1 0 0 2.4 0 0 2 10.8 1
2023-06-09 vs. SD $4K $5.5K 8.95 15 4 3 11 0 0 2 0 2 0 3 0 0 0 0 1 0 0 1 12 0
2023-06-06 vs. SF $4K $5.5K -1.2 4 3 1 11 0 0 0 0 3 0 3 0 4 0 0 5.25 0 0 1 20.25 2
2023-05-31 @ ARI $4K $5.5K 7 14 3 2 16 0 0 1 0 1 0 3 0 2 0 0 1.88 0 0 2 10.12 0
2023-05-28 vs. NYM $4K $5.5K 7 14 1 2 13 0 1 1 0 1 0 3 2 2 0 0 1.88 0 0 0 3.37 0
2023-05-24 vs. MIA $4K $5.5K -1.6 2 3 2 13 0 0 2 0 5 0 6 1 0 1 0 2.25 0 0 2 10.12 1
2023-05-19 @ TEX $4K $5.5K 3.6 8 2 2 12 0 0 0 0 2 0 3 0 0 0 0 1.13 1 0 2 6.75 1
2023-05-16 vs. CIN $4K $5.5K 2.7 6 2 2 8 0 0 1 1 2 0 2 0 1 0 0 1.5 0 0 1 9 0
2023-05-13 vs. PHI $4K $5.5K 16.3 25 5 3 11 0 0 0 0 0 0 2 0 0 0 0 0.6 0 0 1 13.5 1
2023-05-12 vs. PHI $4K $5.5K 0 0 0 0 0 0 0 0 0 0 0 0 0 0 0 0 0 0 0 0 0 0
2023-05-10 @ PIT $4K $5.5K 12.65 19 4 2 7 0 0 0 0 0 0 0 0 1 0 0 0.43 0 0 0 15.43 0
2023-04-18 vs. PIT $6K -- 0 0 0 0 0 0 0 0 0 0 0 0 0 0 0 0 0 0 0 0 0 0
2023-03-22 vs. LAA -- -- 0 0 0 0 0 0 0 0 0 0 0 0 0 0 0 0 0 0 0 0 0 0
2023-03-21 @ SD -- -- -0.3 6 3 2 0 0 0 0 0 3 0 8 0 0 0 0 4 0 0 8 13.5 0
2023-03-14 @ CHC -- -- 9.3 15 4 2 0 0 0 1 0 1 0 1 0 1 0 0 1 0 0 0 18 0
2023-03-03 @ SF -- -- -0.15 3 1 1 0 0 0 1 0 1 0 1 0 3 0 0 4 0 0 0 9 0
2023-02-27 @ OAK -- -- 5.9 9 1 2 0 0 0 0 0 0 0 0 0 1 0 0 0.5 0 0 0 4.5 0

Peter Lambert Daily Fantasy News, Rankings, Projections

Lineup note: Peter Lambert will start for the Rockies on Saturday.

Lineup note: Peter Lambert will start for the Rockies on Saturday.

Reds have 2nd highest total on the main slate vs. Peter Lambert

Peter Lambert does a good job limiting walks (just a 4.4% BB rate this year) but doesn’t miss enough bats (17% K rate, 7.5% SwStr) and gives up a good amount of hard contact (39% Hard contract rate, 90.5 MPH aEV). He’s also allowed a 2.20 HR/9 so far over his 41 innings for the Rockies. Lambert has been a bit more vulnerable versus lefties with a .354 xwOBA allowed vs. LHB compared to a .316 xwOBA allowed vs. RHB. Josh VanMeter (.380 xwOBA vs. RHP this year), Joey Votto (.332), Yasiel Puig (.330), Eugenio Suarez (.321) and Nick Senzel (.312) are all great options. VanMeter has been the Reds’ hottest hitter by far with a .517 xwOBA over the past 30 days, followed by Nick Senzel (.374) and Eugenio Suarez (.368). Scooter Gennett is also an interesting option, he has just a .261 xwOBA over the past 14 days but had a 134 wRC+ vs. RHP last year and costs $3.4k on Draftkings. VanMeter is probably the best value in the lineup, batting 5th at just $3.6k, while Votto is also a nice value batting 2nd at $4k. The Reds currently have a 5.82 implied line at home vs. Lambert and the Rockies.

Dodgers lineup has value and upside at home vs. Lambert

Dodgers bats are slightly priced down, likely due to a tough hitting environment at Dodger Stadium, but they get a great matchup tonight vs. Peter Lambert and have a healthy 5.35 implied total. Lambert so far has been a decent pitcher over a small 15 inning sample size at the MLB level: he has a 6 ERA but a decent 3.73 xFIP, 3.77 SIERA and 18.5% K-BB. He hasn’t shown impressive numbers at any minor league level, however, and projects as a roughly 5.25 ERA pitcher going forward by projection systems. Cody Bellinger (190 wRC+, .349 ISO vs. RHP this year), Joc Pederson (149 wRC+, .379 ISO), Justin Turner (141 wRC+, .118 ISO), Max Muncy (137 wRC+, .250 ISO), Matt Beaty (115 wRC+, .173 ISO) and Alex Verdugo (99 wRC+, .161 ISO) are all great options tonight in LA. Joc Pederson is leading off at just $4.4k on Draftkings, followed by Alex Verdugo at just $3.6k. Turner bats 3rd at just $4.1k, Beaty is also a nice value at just $3.1k batting 7th. Muncy has been their hottest hitter with a 201 wRC+ over the past 2 weeks, followed by Bellinger with a 188 wRC+ that is somehow lower than his season wRC+ of 195.